Time;durP1;ratioP1;P1;durP2;ratioP2;P2;SDS_P1;SDS_P2;PMS_P1;PMS_P2;Temp;Humidity;BMP_temperature;BMP_pressure;BME280_temperature;BME280_humidity;BME280_pressure;Samples;Min_cycle;Max_cycle;Signal;HPM_P1;HPM_P2
2023/10/28 00:01:30;;;;;;;18.87;6.47;;;;;;;-148.15;100.00;61821.78;4973507;28;20038;-89
2023/10/28 00:03:56;;;;;;;26.38;6.50;;;;;;;-148.15;100.00;61821.78;4971089;28;20031;-89
2023/10/28 00:06:22;;;;;;;32.22;6.82;;;;;;;-148.15;100.00;61821.78;4971749;28;20062;-88
2023/10/28 00:08:47;;;;;;;26.20;5.77;;;;;;;-148.15;100.00;61821.78;4971417;28;20050;-89
2023/10/28 00:11:13;;;;;;;33.70;6.30;;;;;;;-148.15;100.00;61821.78;4973737;28;20035;-89
2023/10/28 00:13:39;;;;;;;23.43;5.80;;;;;;;-148.15;100.00;61821.78;4971991;28;20117;-89
2023/10/28 00:16:05;;;;;;;20.20;6.18;;;;;;;-148.15;100.00;61821.78;4972982;28;20390;-89
2023/10/28 00:18:30;;;;;;;15.43;5.90;;;;;;;-148.15;100.00;61821.78;4970816;28;20027;-88
2023/10/28 00:20:56;;;;;;;23.70;5.77;;;;;;;-148.15;100.00;61821.78;4976841;28;20066;-89
2023/10/28 00:23:22;;;;;;;22.35;6.38;;;;;;;-148.15;100.00;61821.78;4973571;28;20034;-88
2023/10/28 00:25:49;;;;;;;23.83;6.00;;;;;;;-148.15;100.00;61821.78;4973030;28;20427;-88
2023/10/28 00:28:14;;;;;;;22.97;5.33;;;;;;;-148.15;100.00;61821.78;4961730;28;20279;-88
2023/10/28 00:30:40;;;;;;;20.55;5.68;;;;;;;-148.15;100.00;61821.78;4969507;28;20058;-87
2023/10/28 00:33:05;;;;;;;21.70;5.70;;;;;;;-148.15;100.00;61821.78;4973647;28;20035;-88
2023/10/28 00:35:31;;;;;;;24.47;5.80;;;;;;;-148.15;100.00;61821.78;4973524;28;20026;-88
2023/10/28 00:37:57;;;;;;;25.33;5.40;;;;;;;-148.15;100.00;61821.78;4981304;28;20031;-87
2023/10/28 00:40:30;;;;;;;15.50;4.93;;;;;;;-148.15;100.00;61821.78;4980516;28;20109;-87
2023/10/28 00:42:56;;;;;;;18.90;5.30;;;;;;;-148.15;100.00;61821.78;4998231;28;20627;-88
2023/10/28 00:45:21;;;;;;;18.75;5.60;;;;;;;-148.15;100.00;61821.78;4982657;28;20027;-87
2023/10/28 00:47:49;;;;;;;21.85;5.38;;;;;;;-148.15;100.00;61821.78;4978571;28;20459;-88
2023/10/28 00:50:15;;;;;;;14.33;4.83;;;;;;;-148.15;100.00;61821.78;4973058;28;20042;-87
2023/10/28 00:52:43;;;;;;;10.93;4.78;;;;;;;-148.15;100.00;61821.78;4970600;28;20027;-87
2023/10/28 00:55:10;;;;;;;15.70;5.05;;;;;;;-148.15;100.00;61821.78;4970839;28;20030;-88
2023/10/28 00:57:41;;;;;;;15.68;4.60;;;;;;;-148.15;100.00;61821.78;4971822;28;20062;-87
2023/10/28 01:00:07;;;;;;;19.42;5.10;;;;;;;-148.15;100.00;61821.78;4953760;28;20024;-87
2023/10/28 01:02:35;;;;;;;15.10;4.23;;;;;;;-148.15;100.00;61821.78;4971194;28;20047;-88
2023/10/28 01:05:02;;;;;;;15.60;5.37;;;;;;;-148.15;100.00;61821.78;4973262;28;20302;-87
2023/10/28 01:07:28;;;;;;;14.90;4.38;;;;;;;-148.15;100.00;61821.78;4971554;28;20438;-87
2023/10/28 01:09:54;;;;;;;18.40;5.80;;;;;;;-148.15;100.00;61821.78;4972056;28;20109;-88
2023/10/28 01:12:21;;;;;;;15.77;5.30;;;;;;;-148.15;100.00;61821.78;4971206;28;20387;-87
2023/10/28 01:14:46;;;;;;;16.77;4.90;;;;;;;-148.15;100.00;61821.78;4971893;28;20031;-88
2023/10/28 01:17:13;;;;;;;14.53;4.60;;;;;;;-148.15;100.00;61821.78;4972218;28;20526;-87
2023/10/28 01:19:39;;;;;;;16.35;4.93;;;;;;;-148.15;100.00;61821.78;4970482;28;20049;-87
2023/10/28 01:22:05;;;;;;;16.25;4.90;;;;;;;-148.15;100.00;61821.78;4968051;28;20035;-87
2023/10/28 01:24:32;;;;;;;11.40;4.67;;;;;;;-148.15;100.00;61821.78;4970305;28;20033;-87
2023/10/28 01:26:59;;;;;;;16.85;4.45;;;;;;;-148.15;100.00;61821.78;4968995;28;20027;-87
2023/10/28 01:29:25;;;;;;;15.60;3.78;;;;;;;-148.15;100.00;61821.78;4971156;28;20019;-88
2023/10/28 01:31:50;;;;;;;14.10;3.83;;;;;;;-148.15;100.00;61821.78;4970766;28;20031;-87
2023/10/28 01:34:16;;;;;;;19.83;3.28;;;;;;;-148.15;100.00;61821.78;4971278;28;20026;-87
2023/10/28 01:36:43;;;;;;;12.67;3.33;;;;;;;-148.15;100.00;61821.78;4969781;28;20508;-88
2023/10/28 01:39:08;;;;;;;11.18;2.75;;;;;;;-148.15;100.00;61821.78;4970974;28;20492;-88
2023/10/28 01:41:34;;;;;;;14.57;3.47;;;;;;;-148.15;100.00;61821.78;4970056;28;20027;-87
2023/10/28 01:43:59;;;;;;;16.03;3.10;;;;;;;-148.15;100.00;61821.78;4970346;28;20104;-89
2023/10/28 01:46:24;;;;;;;7.17;2.47;;;;;;;-148.15;100.00;61821.78;4971668;28;20031;-87
2023/10/28 01:48:50;;;;;;;10.63;2.45;;;;;;;-148.15;100.00;61821.78;4970124;28;20040;-88
2023/10/28 01:51:15;;;;;;;13.13;2.50;;;;;;;-148.15;100.00;61821.78;4970712;28;20035;-88
2023/10/28 01:53:40;;;;;;;7.57;2.70;;;;;;;-148.15;100.00;61821.78;4971055;28;20023;-87
2023/10/28 01:56:06;;;;;;;9.57;2.33;;;;;;;-148.15;100.00;61821.78;4969872;28;20430;-88
2023/10/28 01:58:32;;;;;;;12.53;2.50;;;;;;;-148.15;100.00;61821.78;4967542;28;20034;-88
2023/10/28 02:00:58;;;;;;;11.38;2.40;;;;;;;-148.15;100.00;61821.78;4968603;28;20180;-88
2023/10/28 02:03:23;;;;;;;10.23;2.55;;;;;;;-148.15;100.00;61821.78;4970966;28;20113;-88
2023/10/28 02:05:48;;;;;;;9.67;1.93;;;;;;;-148.15;100.00;61821.78;4969614;28;20034;-88
2023/10/28 02:08:14;;;;;;;7.83;2.03;;;;;;;-148.15;100.00;61821.78;4965535;28;20046;-87
2023/10/28 02:10:39;;;;;;;16.07;2.50;;;;;;;-148.15;100.00;61821.78;4968559;28;20405;-87
2023/10/28 02:13:05;;;;;;;6.67;1.97;;;;;;;-148.15;100.00;61821.78;4978120;28;20114;-87
2023/10/28 02:15:30;;;;;;;6.10;1.97;;;;;;;-148.15;100.00;61821.78;4971349;28;20023;-87
2023/10/28 02:17:55;;;;;;;7.30;1.93;;;;;;;-148.15;100.00;61821.78;4971541;28;20328;-89
2023/10/28 02:20:21;;;;;;;7.23;1.80;;;;;;;-148.15;100.00;61821.78;4973338;28;20037;-89
2023/10/28 02:22:48;;;;;;;7.88;1.90;;;;;;;-148.15;100.00;61821.78;4980011;28;20046;-88
2023/10/28 02:25:14;;;;;;;8.23;1.70;;;;;;;-148.15;100.00;61821.78;4980794;28;20030;-89
2023/10/28 02:27:39;;;;;;;6.57;1.70;;;;;;;-148.15;100.00;61821.78;4971958;28;20300;-89
2023/10/28 02:30:10;;;;;;;4.17;1.50;;;;;;;-148.15;100.00;61821.78;4970173;28;20031;-89
2023/10/28 02:32:36;;;;;;;5.78;1.58;;;;;;;-148.15;100.00;61821.78;4990621;28;20483;-89
2023/10/28 02:35:02;;;;;;;9.32;2.03;;;;;;;-148.15;100.00;61821.78;4974205;28;20414;-89
2023/10/28 02:37:28;;;;;;;5.20;1.60;;;;;;;-148.15;100.00;61821.78;4974249;28;20060;-89
2023/10/28 02:39:53;;;;;;;3.77;1.63;;;;;;;-148.15;100.00;61821.78;4974607;28;20797;-89
2023/10/28 02:42:22;;;;;;;3.23;1.50;;;;;;;-148.15;100.00;61821.78;4972618;28;20038;-88
2023/10/28 02:44:47;;;;;;;8.25;1.65;;;;;;;-148.15;100.00;61821.78;4973106;28;20119;-89
2023/10/28 02:47:12;;;;;;;6.03;1.30;;;;;;;-148.15;100.00;61821.78;4974750;28;20110;-89
2023/10/28 02:49:38;;;;;;;2.50;1.20;;;;;;;-148.15;100.00;61821.78;4975042;28;20076;-88
2023/10/28 02:52:03;;;;;;;4.17;1.20;;;;;;;-148.15;100.00;61821.78;4972959;28;20035;-88
2023/10/28 02:54:29;;;;;;;5.55;1.25;;;;;;;-148.15;100.00;61821.78;4958567;28;20015;-88
2023/10/28 02:56:54;;;;;;;4.93;1.13;;;;;;;-148.15;100.00;61821.78;4973932;28;20437;-89
2023/10/28 02:59:20;;;;;;;6.07;1.40;;;;;;;-148.15;100.00;61821.78;4974811;28;20047;-88
2023/10/28 03:01:45;;;;;;;4.23;1.00;;;;;;;-148.15;100.00;61821.78;4973227;28;20026;-89
2023/10/28 03:04:11;;;;;;;2.92;1.35;;;;;;;-148.15;100.00;61821.78;4973305;28;20397;-88
2023/10/28 03:06:37;;;;;;;2.23;1.20;;;;;;;-148.15;100.00;61821.78;4973778;28;20038;-89
2023/10/28 03:09:02;;;;;;;3.20;1.17;;;;;;;-148.15;100.00;61821.78;4972886;28;20314;-88
2023/10/28 03:11:27;;;;;;;5.23;1.50;;;;;;;-148.15;100.00;61821.78;4974790;28;20041;-89
2023/10/28 03:13:53;;;;;;;4.77;1.50;;;;;;;-148.15;100.00;61821.78;4974517;28;20038;-88
2023/10/28 03:16:19;;;;;;;5.32;2.00;;;;;;;-148.15;100.00;61821.78;4974081;28;20125;-88
2023/10/28 03:18:44;;;;;;;4.27;1.60;;;;;;;-148.15;100.00;61821.78;4974453;28;20422;-89
2023/10/28 03:21:09;;;;;;;11.07;1.90;;;;;;;-148.15;100.00;61821.78;4973366;28;20423;-89
2023/10/28 03:23:34;;;;;;;4.17;1.87;;;;;;;-148.15;100.00;61821.78;4973269;28;20030;-88
2023/10/28 03:26:00;;;;;;;9.13;2.57;;;;;;;-148.15;100.00;61821.78;4972364;28;20039;-89
2023/10/28 03:28:25;;;;;;;7.70;2.07;;;;;;;-148.15;100.00;61821.78;4972581;28;20041;-89
2023/10/28 03:30:50;;;;;;;5.53;1.80;;;;;;;-148.15;100.00;61821.78;4973780;28;20039;-88
2023/10/28 03:33:16;;;;;;;9.77;2.10;;;;;;;-148.15;100.00;61821.78;4969753;28;20383;-86
2023/10/28 03:35:41;;;;;;;4.27;1.77;;;;;;;-148.15;100.00;61821.78;4973848;28;20498;-87
2023/10/28 03:38:07;;;;;;;9.77;2.10;;;;;;;-148.15;100.00;61821.78;4968253;28;20027;-87
2023/10/28 03:40:32;;;;;;;9.40;2.35;;;;;;;-148.15;100.00;61821.78;4965217;28;20250;-88
2023/10/28 03:42:57;;;;;;;4.30;2.20;;;;;;;-148.15;100.00;61821.78;4971439;28;20438;-88
2023/10/28 03:45:23;;;;;;;9.63;2.33;;;;;;;-148.15;100.00;61821.78;4973750;28;20060;-88
2023/10/28 03:47:48;;;;;;;6.23;2.07;;;;;;;-148.15;100.00;61821.78;4970243;28;20038;-88
2023/10/28 03:50:14;;;;;;;5.40;2.20;;;;;;;-148.15;100.00;61821.78;4967303;28;20533;-88
2023/10/28 03:52:39;;;;;;;5.67;1.97;;;;;;;-148.15;100.00;61821.78;4969021;28;20038;-87
2023/10/28 03:55:05;;;;;;;5.33;2.10;;;;;;;-148.15;100.00;61821.78;4971574;28;20042;-88
2023/10/28 03:57:30;;;;;;;5.88;2.00;;;;;;;-148.15;100.00;61821.78;4971607;28;21148;-88
2023/10/28 03:59:58;;;;;;;8.60;2.00;;;;;;;-148.15;100.00;61821.78;4972429;28;20110;-88
2023/10/28 04:02:23;;;;;;;3.83;2.10;;;;;;;-148.15;100.00;61821.78;4970203;28;20039;-88
2023/10/28 04:04:49;;;;;;;5.27;1.60;;;;;;;-148.15;100.00;61821.78;4966714;28;20038;-88
2023/10/28 04:07:14;;;;;;;8.07;2.25;;;;;;;-148.15;100.00;61821.78;4967279;28;20513;-87
2023/10/28 04:09:39;;;;;;;5.63;2.03;;;;;;;-148.15;100.00;61821.78;4966215;28;20030;-88
2023/10/28 04:12:05;;;;;;;5.30;2.07;;;;;;;-148.15;100.00;61821.78;4966502;28;20022;-90
2023/10/28 04:14:32;;;;;;;6.68;2.08;;;;;;;-148.15;100.00;61821.78;4968931;28;20089;-91
2023/10/28 04:16:57;;;;;;;4.45;1.95;;;;;;;-148.15;100.00;61821.78;4967873;28;20031;-90
2023/10/28 04:19:23;;;;;;;6.67;1.90;;;;;;;-148.15;100.00;61821.78;4973706;28;20046;-90
2023/10/28 04:21:48;;;;;;;7.37;2.07;;;;;;;-148.15;100.00;61821.78;4972677;28;20070;-91
2023/10/28 04:24:14;;;;;;;6.43;1.80;;;;;;;-148.15;100.00;61821.78;4973075;28;20023;-91
2023/10/28 04:26:39;;;;;;;4.17;1.70;;;;;;;-148.15;100.00;61821.78;4970136;28;20035;-90
2023/10/28 04:29:04;;;;;;;5.50;1.70;;;;;;;-148.15;100.00;61821.78;4971909;28;20061;-91
2023/10/28 04:31:30;;;;;;;3.53;2.20;;;;;;;-148.15;100.00;61821.78;4970180;28;20035;-90
2023/10/28 04:33:55;;;;;;;6.27;1.90;;;;;;;-148.15;100.00;61821.78;4970275;28;20073;-90
2023/10/28 04:36:22;;;;;;;11.02;1.88;;;;;;;-148.15;100.00;61821.78;4985661;28;20022;-90
2023/10/28 04:38:47;;;;;;;6.10;1.67;;;;;;;-148.15;100.00;61821.78;4971727;28;20038;-90
2023/10/28 04:41:12;;;;;;;4.10;2.10;;;;;;;-148.15;100.00;61821.78;4971895;28;20278;-90
2023/10/28 04:43:39;;;;;;;5.43;1.90;;;;;;;-148.15;100.00;61821.78;4972720;28;20050;-90
2023/10/28 04:46:04;;;;;;;8.05;1.90;;;;;;;-148.15;100.00;61821.78;4970804;28;20483;-90
2023/10/28 04:48:30;;;;;;;5.77;1.83;;;;;;;-148.15;100.00;61821.78;4977528;28;20030;-90
2023/10/28 04:50:55;;;;;;;6.15;2.00;;;;;;;-148.15;100.00;61821.78;4975039;28;20510;-91
2023/10/28 04:53:22;;;;;;;6.53;1.80;;;;;;;-148.15;100.00;61821.78;4972382;28;20027;-91
2023/10/28 04:55:48;;;;;;;9.85;2.55;;;;;;;-148.15;100.00;61821.78;4958644;28;20395;-90
2023/10/28 04:58:17;;;;;;;7.80;1.80;;;;;;;-148.15;100.00;61821.78;4971316;28;20027;-90
2023/10/28 05:00:43;;;;;;;4.97;1.80;;;;;;;-148.15;100.00;61821.78;4964281;28;20031;-88
2023/10/28 05:03:09;;;;;;;6.00;1.70;;;;;;;-148.15;100.00;61821.78;4957179;28;20035;-87
2023/10/28 05:05:34;;;;;;;6.47;2.13;;;;;;;-148.15;100.00;61821.78;4959161;28;20046;-87
2023/10/28 05:08:00;;;;;;;6.30;1.77;;;;;;;-148.15;100.00;61821.78;4986926;28;20438;-87
2023/10/28 05:10:25;;;;;;;8.50;2.15;;;;;;;-148.15;100.00;61821.78;4970181;28;20444;-88
2023/10/28 05:12:50;;;;;;;7.20;2.10;;;;;;;-148.15;100.00;61821.78;4968822;28;20062;-89
2023/10/28 05:15:16;;;;;;;7.07;2.03;;;;;;;-148.15;100.00;61821.78;4976955;28;20026;-89
2023/10/28 05:17:41;;;;;;;7.70;1.97;;;;;;;-148.15;100.00;61821.78;4982075;28;20050;-89
2023/10/28 05:20:08;;;;;;;10.60;2.45;;;;;;;-148.15;100.00;61821.78;4984096;28;20085;-90
2023/10/28 05:22:38;;;;;;;4.97;1.80;;;;;;;-148.15;100.00;61821.78;4971591;28;20077;-88
2023/10/28 05:25:07;;;;;;;7.40;2.20;;;;;;;-148.15;100.00;61821.78;4972223;28;20031;-90
2023/10/28 05:27:33;;;;;;;4.50;1.65;;;;;;;-148.15;100.00;61821.78;4971055;28;20054;-87
2023/10/28 05:29:59;;;;;;;6.50;1.83;;;;;;;-148.15;100.00;61821.78;4969910;28;20035;-89
2023/10/28 05:32:25;;;;;;;4.00;1.60;;;;;;;-148.15;100.00;61821.78;4972004;28;20062;-89
2023/10/28 05:34:50;;;;;;;5.60;1.70;;;;;;;-148.15;100.00;61821.78;4970986;28;20031;-89
2023/10/28 05:37:16;;;;;;;8.20;2.10;;;;;;;-148.15;100.00;61821.78;4969486;28;20027;-89
2023/10/28 05:39:42;;;;;;;6.85;1.70;;;;;;;-148.15;100.00;61821.78;4963744;28;20459;-89
2023/10/28 05:42:08;;;;;;;3.60;1.42;;;;;;;-148.15;100.00;61821.78;4952370;29;20551;-89
2023/10/28 05:44:35;;;;;;;6.10;1.90;;;;;;;-148.15;100.00;61821.78;4957676;28;20034;-88
2023/10/28 05:47:00;;;;;;;4.20;1.47;;;;;;;-148.15;100.00;61821.78;4970980;28;20325;-87
2023/10/28 05:49:26;;;;;;;4.55;1.45;;;;;;;-148.15;100.00;61821.78;4965058;28;20406;-86
2023/10/28 05:51:51;;;;;;;3.53;1.53;;;;;;;-148.15;100.00;61821.78;4967458;28;20027;-89
2023/10/28 05:54:17;;;;;;;4.80;1.40;;;;;;;-148.15;100.00;61821.78;5003568;23;20038;-89
2023/10/28 05:56:42;;;;;;;7.87;1.43;;;;;;;-148.15;100.00;61821.78;4987458;28;20161;-88
2023/10/28 05:59:08;;;;;;;10.87;1.73;;;;;;;-148.15;100.00;61821.78;4989752;28;20031;-86
2023/10/28 06:01:34;;;;;;;9.13;2.47;;;;;;;-148.15;100.00;61821.78;4990231;28;20062;-87
2023/10/28 06:04:00;;;;;;;9.88;1.83;;;;;;;-148.15;100.00;61821.78;4990332;28;20030;-87
2023/10/28 06:06:26;;;;;;;5.53;1.83;;;;;;;-148.15;100.00;61821.78;4989814;28;20029;-89
2023/10/28 06:08:51;;;;;;;6.43;1.50;;;;;;;-148.15;100.00;61821.78;4990883;28;20026;-89
2023/10/28 06:11:17;;;;;;;7.67;1.60;;;;;;;-148.15;100.00;61821.78;4988490;28;20038;-88
2023/10/28 06:13:43;;;;;;;6.57;1.73;;;;;;;-148.15;100.00;61821.78;4990015;28;20402;-83
2023/10/28 06:16:08;;;;;;;5.82;1.60;;;;;;;-148.15;100.00;61821.78;4989446;28;20034;-83
2023/10/28 06:18:33;;;;;;;9.37;1.67;;;;;;;-148.15;100.00;61821.78;4985867;28;20457;-83
2023/10/28 06:21:00;;;;;;;6.53;1.80;;;;;;;-148.15;100.00;61821.78;4989948;28;20026;-83
2023/10/28 06:23:25;;;;;;;4.30;1.88;;;;;;;-148.15;100.00;61821.78;4989397;28;20029;-83
2023/10/28 06:25:51;;;;;;;6.60;1.67;;;;;;;-148.15;100.00;61821.78;4990133;28;20034;-84
2023/10/28 06:28:18;;;;;;;5.87;1.80;;;;;;;-148.15;100.00;61821.78;4989292;28;20023;-83
2023/10/28 06:30:47;;;;;;;11.32;2.20;;;;;;;-148.15;100.00;61821.78;4995278;28;20500;-83
2023/10/28 06:33:22;;;;;;;6.90;1.75;;;;;;;-148.15;100.00;61821.78;4995429;28;20080;-83
2023/10/28 06:35:47;;;;;;;8.13;2.00;;;;;;;-148.15;100.00;61821.78;4989808;28;20489;-82
2023/10/28 06:38:13;;;;;;;8.23;2.20;;;;;;;-148.15;100.00;61821.78;4989659;28;20058;-82
2023/10/28 06:40:38;;;;;;;9.07;2.00;;;;;;;-148.15;100.00;61821.78;4990246;28;20732;-82
2023/10/28 06:43:05;;;;;;;9.50;1.65;;;;;;;-148.15;100.00;61821.78;4988138;28;20022;-85
2023/10/28 06:45:31;;;;;;;6.77;1.70;;;;;;;-148.15;100.00;61821.78;4988573;28;20117;-84
2023/10/28 06:47:56;;;;;;;5.50;1.73;;;;;;;-148.15;100.00;61821.78;4988053;28;20286;-83
2023/10/28 06:50:21;;;;;;;7.60;1.75;;;;;;;-148.15;100.00;61821.78;4985734;28;20037;-83
2023/10/28 06:52:48;;;;;;;9.87;3.03;;;;;;;-148.15;100.00;61821.78;4987950;28;20300;-84
2023/10/28 06:55:14;;;;;;;5.68;1.85;;;;;;;-148.15;100.00;61821.78;4990023;28;20034;-84
2023/10/28 06:57:41;;;;;;;5.80;1.80;;;;;;;-148.15;100.00;61821.78;4989990;28;20417;-83
2023/10/28 07:00:12;;;;;;;10.70;1.80;;;;;;;-148.15;100.00;61821.78;4990309;28;20029;-83
2023/10/28 07:02:38;;;;;;;6.10;1.90;;;;;;;-148.15;100.00;61821.78;4988377;28;20026;-83
2023/10/28 07:05:03;;;;;;;5.93;2.38;;;;;;;-148.15;100.00;61821.78;4989451;28;20479;-83
2023/10/28 07:07:29;;;;;;;8.53;2.00;;;;;;;-148.15;100.00;61821.78;4989647;28;20030;-83
2023/10/28 07:09:54;;;;;;;4.93;1.60;;;;;;;-148.15;100.00;61821.78;4990166;28;20030;-84
2023/10/28 07:12:20;;;;;;;7.90;1.98;;;;;;;-148.15;100.00;61821.78;4989066;28;20084;-83
2023/10/28 07:14:45;;;;;;;6.07;1.70;;;;;;;-148.15;100.00;61821.78;4990180;28;20023;-83
2023/10/28 07:17:11;;;;;;;10.10;2.60;;;;;;;-148.15;100.00;61821.78;4989310;28;20114;-84
2023/10/28 07:19:36;;;;;;;6.95;2.00;;;;;;;-148.15;100.00;61821.78;4988621;28;20067;-83
2023/10/28 07:22:02;;;;;;;9.27;1.97;;;;;;;-148.15;100.00;61821.78;4973573;28;20452;-83
2023/10/28 07:24:27;;;;;;;12.40;2.55;;;;;;;-148.15;100.00;61821.78;4990566;28;20045;-84
2023/10/28 07:26:53;;;;;;;10.60;2.43;;;;;;;-148.15;100.00;61821.78;4994149;28;20034;-84
2023/10/28 07:29:18;;;;;;;9.70;1.97;;;;;;;-148.15;100.00;61821.78;4992292;28;20049;-84
2023/10/28 07:31:43;;;;;;;7.47;1.93;;;;;;;-148.15;100.00;61821.78;4989376;28;20080;-84
2023/10/28 07:34:09;;;;;;;5.50;1.80;;;;;;;-148.15;100.00;61821.78;4973956;28;20031;-84
2023/10/28 07:36:34;;;;;;;5.87;1.90;;;;;;;-148.15;100.00;61821.78;4978007;28;20309;-84
2023/10/28 07:39:01;;;;;;;11.17;1.70;;;;;;;-148.15;100.00;61821.78;4972604;28;20059;-83
2023/10/28 07:41:30;;;;;;;6.18;1.80;;;;;;;-148.15;100.00;61821.78;4973396;28;20061;-84
2023/10/28 07:43:57;;;;;;;5.80;1.73;;;;;;;-148.15;100.00;61821.78;4983859;28;20030;-84
2023/10/28 07:46:23;;;;;;;8.63;1.80;;;;;;;-148.15;100.00;61821.78;4990915;28;20289;-84
2023/10/28 07:48:49;;;;;;;11.30;2.20;;;;;;;-148.15;100.00;61821.78;4992991;28;20050;-84
2023/10/28 07:51:17;;;;;;;9.30;1.70;;;;;;;-148.15;100.00;61821.78;4991092;28;20046;-84
2023/10/28 07:53:42;;;;;;;7.22;1.80;;;;;;;-148.15;100.00;61821.78;4991907;28;20069;-84
2023/10/28 07:56:08;;;;;;;6.93;1.90;;;;;;;-148.15;100.00;61821.78;4992315;28;20062;-84
2023/10/28 07:58:35;;;;;;;7.85;1.75;;;;;;;-148.15;100.00;61821.78;4992650;28;20034;-84
2023/10/28 08:01:01;;;;;;;7.80;1.63;;;;;;;-148.15;100.00;61821.78;4986592;28;20113;-83
2023/10/28 08:03:28;;;;;;;7.55;1.40;;;;;;;-148.15;100.00;61821.78;4973147;28;20505;-83
2023/10/28 08:05:53;;;;;;;10.03;1.60;;;;;;;-148.15;100.00;61821.78;4973664;28;20110;-83
2023/10/28 08:08:20;;;;;;;9.73;1.35;;;;;;;-148.15;100.00;61821.78;4991541;28;20081;-84
2023/10/28 08:10:46;;;;;;;8.52;1.85;;;;;;;-148.15;100.00;61821.78;4991415;28;20390;-84
2023/10/28 08:13:11;;;;;;;7.70;1.60;;;;;;;-148.15;100.00;61821.78;4992843;28;20030;-84
2023/10/28 08:15:37;;;;;;;6.33;1.40;;;;;;;-148.15;100.00;61821.78;4991216;28;20033;-84
2023/10/28 08:18:02;;;;;;;3.63;1.20;;;;;;;-148.15;100.00;61821.78;4991227;28;20161;-84
2023/10/28 08:20:28;;;;;;;4.30;1.43;;;;;;;-148.15;100.00;61821.78;4991892;28;20630;-83
2023/10/28 08:23:04;;;;;;;11.73;1.77;;;;;;;-148.15;100.00;61821.78;4990461;28;20041;-84
2023/10/28 08:25:31;;;;;;;6.90;1.80;;;;;;;-148.15;100.00;61821.78;5213494;23;20043;-83
2023/10/28 08:27:56;;;;;;;7.63;1.40;;;;;;;-148.15;100.00;61821.78;4988083;28;20295;-84
2023/10/28 08:30:22;;;;;;;5.13;1.30;;;;;;;-148.15;100.00;61821.78;4976170;28;20023;-84
2023/10/28 08:32:47;;;;;;;6.83;1.30;;;;;;;-148.15;100.00;61821.78;5026379;23;20688;-84
2023/10/28 08:35:13;;;;;;;7.13;1.40;;;;;;;-148.15;100.00;61821.78;4971073;28;20041;-83
2023/10/28 08:37:38;;;;;;;8.87;1.50;;;;;;;-148.15;100.00;61821.78;4972647;28;20031;-84
2023/10/28 08:40:08;;;;;;;5.05;1.17;;;;;;;-148.15;100.00;61821.78;4971481;28;20027;-84
2023/10/28 08:42:34;;;;;;;4.85;1.35;;;;;;;-148.15;100.00;61821.78;4971123;28;20033;-84
2023/10/28 08:45:03;;;;;;;8.17;1.90;;;;;;;-148.15;100.00;61821.78;4968935;28;20381;-84
2023/10/28 08:47:31;;;;;;;8.32;1.48;;;;;;;-148.15;100.00;61821.78;4972588;28;20019;-83
2023/10/28 08:49:58;;;;;;;5.03;1.40;;;;;;;-148.15;100.00;61821.78;4972297;28;20467;-84
2023/10/28 08:52:26;;;;;;;7.82;1.60;;;;;;;-148.15;100.00;61821.78;4971714;28;20086;-84
2023/10/28 08:54:57;;;;;;;5.18;1.30;;;;;;;-148.15;100.00;61821.78;4971901;28;20022;-83
2023/10/28 08:57:23;;;;;;;3.87;1.60;;;;;;;-148.15;100.00;61821.78;4972276;28;20035;-83
2023/10/28 08:59:49;;;;;;;7.57;1.40;;;;;;;-148.15;100.00;61821.78;4971881;28;20289;-84
2023/10/28 09:02:19;;;;;;;7.72;1.90;;;;;;;-148.15;100.00;61821.78;4971351;28;20543;-84
2023/10/28 09:04:45;;;;;;;6.82;1.40;;;;;;;-148.15;100.00;61821.78;4971756;28;20787;-84
2023/10/28 09:07:10;;;;;;;6.87;1.97;;;;;;;-148.15;100.00;61821.78;4970487;28;20035;-84
2023/10/28 09:09:37;;;;;;;7.40;1.50;;;;;;;-148.15;100.00;61821.78;4971795;28;20034;-84
2023/10/28 09:12:06;;;;;;;5.70;1.42;;;;;;;-148.15;100.00;61821.78;4972364;28;20051;-84
2023/10/28 09:14:31;;;;;;;7.35;1.60;;;;;;;-148.15;100.00;61821.78;4971439;28;20031;-84
2023/10/28 09:17:00;;;;;;;9.17;1.70;;;;;;;-148.15;100.00;61821.78;4971557;28;20466;-84
2023/10/28 09:19:26;;;;;;;9.00;1.60;;;;;;;-148.15;100.00;61821.78;4963567;28;20037;-84
2023/10/28 09:21:52;;;;;;;10.77;1.90;;;;;;;-148.15;100.00;61821.78;4954663;28;20302;-84
2023/10/28 09:24:17;;;;;;;9.30;1.73;;;;;;;-148.15;100.00;61821.78;4952399;29;20031;-84
2023/10/28 09:26:43;;;;;;;8.63;1.67;;;;;;;-148.15;100.00;61821.78;4951875;29;20467;-84
2023/10/28 09:29:08;;;;;;;4.77;1.67;;;;;;;-148.15;100.00;61821.78;4952710;29;20035;-84
2023/10/28 09:31:34;;;;;;;7.63;1.60;;;;;;;-148.15;100.00;61821.78;4952119;28;20054;-84
2023/10/28 09:34:00;;;;;;;5.78;1.20;;;;;;;-148.15;100.00;61821.78;4952198;29;20194;-84
2023/10/28 09:36:29;;;;;;;4.30;1.45;;;;;;;-148.15;100.00;61821.78;4969871;28;20553;-84
2023/10/28 09:38:56;;;;;;;10.65;2.03;;;;;;;-148.15;100.00;61821.78;4969764;28;20470;-85
2023/10/28 09:41:21;;;;;;;5.68;1.48;;;;;;;-148.15;100.00;61821.78;4970569;28;20066;-84
2023/10/28 09:43:47;;;;;;;5.87;1.40;;;;;;;-148.15;100.00;61821.78;4969845;28;20125;-84
2023/10/28 09:46:18;;;;;;;5.53;1.20;;;;;;;-148.15;100.00;61821.78;4969755;28;20034;-84
2023/10/28 09:48:48;;;;;;;7.05;1.83;;;;;;;-148.15;100.00;61821.78;4970956;28;20117;-84
2023/10/28 09:51:20;;;;;;;6.53;1.58;;;;;;;-148.15;100.00;61821.78;4969412;28;20031;-84
2023/10/28 09:53:50;;;;;;;9.50;1.55;;;;;;;-148.15;100.00;61821.78;4968684;28;20140;-84
2023/10/28 09:56:16;;;;;;;8.57;1.38;;;;;;;-148.15;100.00;61821.78;4970803;28;20061;-84
2023/10/28 09:58:58;;;;;;;4.37;1.50;;;;;;;-148.15;100.00;61821.78;4971283;28;20031;-84
2023/10/28 10:01:52;;;;;;;5.45;1.40;;;;;;;-148.15;100.00;61821.78;4970499;28;20074;-84
2023/10/28 10:04:37;;;;;;;10.57;1.85;;;;;;;-148.15;100.00;61821.78;4971726;28;20117;-85
2023/10/28 10:07:02;;;;;;;5.05;1.52;;;;;;;-148.15;100.00;61821.78;4970734;28;20038;-85
2023/10/28 10:09:27;;;;;;;4.37;1.13;;;;;;;-148.15;100.00;61821.78;4968827;28;20100;-85
2023/10/28 10:11:57;;;;;;;5.03;1.27;;;;;;;-148.15;100.00;61821.78;4968828;28;20054;-82
2023/10/28 10:14:27;;;;;;;5.38;1.55;;;;;;;-148.15;100.00;61821.78;4968464;28;20069;-84
2023/10/28 10:16:59;;;;;;;8.98;1.30;;;;;;;-148.15;100.00;61821.78;4958631;28;20031;-84
2023/10/28 10:19:33;;;;;;;7.72;1.40;;;;;;;-148.15;100.00;61821.78;4971028;28;20027;-85
2023/10/28 10:22:02;;;;;;;3.43;1.30;;;;;;;-148.15;100.00;61821.78;4967269;28;20050;-85
2023/10/28 10:24:28;;;;;;;5.60;1.48;;;;;;;-148.15;100.00;61821.78;4969249;28;20081;-85
2023/10/28 10:26:58;;;;;;;6.80;1.50;;;;;;;-148.15;100.00;61821.78;4968352;28;20031;-84
2023/10/28 10:29:26;;;;;;;5.27;1.30;;;;;;;-148.15;100.00;61821.78;4972706;28;20324;-84
2023/10/28 10:31:53;;;;;;;4.70;1.20;;;;;;;-148.15;100.00;61821.78;4973294;28;20093;-85
2023/10/28 10:34:39;;;;;;;4.30;1.13;;;;;;;-148.15;100.00;61821.78;4969662;28;20083;-85
2023/10/28 10:37:05;;;;;;;6.18;1.10;;;;;;;-148.15;100.00;61821.78;4969408;28;20537;-85
2023/10/28 10:39:42;;;;;;;8.10;1.40;;;;;;;-148.15;100.00;61821.78;4972773;28;20026;-85
2023/10/28 10:42:08;;;;;;;5.23;1.30;;;;;;;-148.15;100.00;61821.78;4961204;28;20475;-85
2023/10/28 10:44:36;;;;;;;4.63;1.17;;;;;;;-148.15;100.00;61821.78;4969994;28;20424;-85
2023/10/28 10:47:02;;;;;;;4.80;1.27;;;;;;;-148.15;100.00;61821.78;4967948;28;20026;-85
2023/10/28 10:49:31;;;;;;;7.40;1.30;;;;;;;-148.15;100.00;61821.78;4969761;28;20057;-85
2023/10/28 10:52:03;;;;;;;8.05;1.20;;;;;;;-148.15;100.00;61821.78;4970087;28;20606;-85
2023/10/28 10:54:30;;;;;;;11.47;1.40;;;;;;;-148.15;100.00;61821.78;4972223;28;20103;-85
2023/10/28 10:56:55;;;;;;;9.97;2.07;;;;;;;-148.15;100.00;61821.78;4973796;28;20286;-85
2023/10/28 10:59:21;;;;;;;6.30;1.50;;;;;;;-148.15;100.00;61821.78;4973577;28;20089;-85
2023/10/28 11:01:46;;;;;;;9.90;1.87;;;;;;;-148.15;100.00;61821.78;4973620;28;20310;-86
2023/10/28 11:04:11;;;;;;;10.03;1.70;;;;;;;-148.15;100.00;61821.78;4973891;28;20027;-86